Time;durP1;ratioP1;P1;durP2;ratioP2;P2;SDS_P1;SDS_P2;PMS_P1;PMS_P2;Temp;Humidity;BMP_temperature;BMP_pressure;BME280_temperature;BME280_humidity;BME280_pressure;Samples;Min_cycle;Max_cycle;Signal;HPM_P1;HPM_P2
2022/05/30 00:02:14;;;;;;;17.88;11.35;;;;;;;17.85;95.33;96157.63;5003803;28;20054;-61
2022/05/30 00:04:41;;;;;;;18.15;11.85;;;;;;;17.59;97.41;96161.50;5003461;28;20508;-61
2022/05/30 00:07:08;;;;;;;22.73;12.95;;;;;;;17.27;99.95;96167.03;5003771;28;20049;-61
2022/05/30 00:09:35;;;;;;;16.17;13.82;;;;;;;17.24;100.00;96165.13;5001879;28;20452;-61
2022/05/30 00:12:03;;;;;;;18.35;13.27;;;;;;;17.04;100.00;96136.41;5002115;28;20559;-61
2022/05/30 00:14:30;;;;;;;23.92;15.80;;;;;;;16.71;100.00;96162.72;5003812;28;20449;-62
2022/05/30 00:16:57;;;;;;;20.00;12.98;;;;;;;16.48;100.00;96155.19;5003478;28;20081;-61
2022/05/30 00:19:24;;;;;;;18.88;13.63;;;;;;;16.08;100.00;96067.72;5002292;28;20096;-61
2022/05/30 00:21:52;;;;;;;22.10;13.68;;;;;;;17.01;100.00;96166.03;5001852;28;20499;-61
2022/05/30 00:24:19;;;;;;;23.85;13.45;;;;;;;17.08;100.00;96157.47;5003387;28;20041;-61
2022/05/30 00:26:45;;;;;;;17.38;12.40;;;;;;;16.56;100.00;96084.72;5001866;28;20054;-61
2022/05/30 00:29:12;;;;;;;18.00;13.75;;;;;;;16.65;100.00;96086.91;5003368;28;20049;-61
2022/05/30 00:31:39;;;;;;;20.33;12.88;;;;;;;16.63;100.00;96073.38;5006727;28;20125;-61
2022/05/30 00:34:05;;;;;;;18.75;13.48;;;;;;;17.00;100.00;96125.28;5006059;28;20054;-62
2022/05/30 00:36:32;;;;;;;20.98;13.68;;;;;;;16.85;100.00;96100.88;5007391;28;20046;-61
2022/05/30 00:38:59;;;;;;;20.08;12.70;;;;;;;17.32;99.84;96146.94;5005310;28;20045;-62
2022/05/30 00:41:26;;;;;;;16.20;12.95;;;;;;;17.47;99.58;96153.78;5006992;28;20112;-63
2022/05/30 00:43:53;;;;;;;18.75;13.32;;;;;;;17.11;98.82;96097.06;5005621;28;20068;-63
2022/05/30 00:46:19;;;;;;;15.43;12.27;;;;;;;17.54;98.38;96159.22;5007153;28;20455;-63
2022/05/30 00:49:01;;;;;;;19.60;12.68;;;;;;;17.60;98.62;96157.47;5005555;28;20053;-62
2022/05/30 00:51:32;;;;;;;17.10;12.43;;;;;;;17.50;98.96;96153.72;5007623;28;20065;-62
2022/05/30 00:54:01;;;;;;;17.55;12.77;;;;;;;17.56;98.68;96159.59;5005887;28;20057;-63
2022/05/30 00:56:32;;;;;;;20.92;13.52;;;;;;;17.48;98.70;96156.16;5006942;28;20058;-63
2022/05/30 00:59:00;;;;;;;19.83;12.98;;;;;;;17.59;98.04;96161.50;5006951;28;20077;-63
2022/05/30 01:01:28;;;;;;;19.58;13.00;;;;;;;17.24;97.50;96111.94;5006913;28;20054;-63
2022/05/30 01:06:45;;;;;;;14.73;11.93;;;;;;;17.57;97.64;96158.34;5006900;28;20050;-63
2022/05/30 01:09:14;;;;;;;18.08;12.20;;;;;;;17.49;98.00;96157.75;5006810;28;20062;-63
2022/05/30 01:11:53;;;;;;;14.35;11.73;;;;;;;17.37;98.64;96160.41;5006558;28;20049;-63
2022/05/30 01:14:21;;;;;;;18.92;12.32;;;;;;;17.23;100.00;96161.53;5006277;28;20564;-63
2022/05/30 01:16:48;;;;;;;18.90;12.23;;;;;;;17.10;100.00;96162.66;5006290;28;20149;-63
2022/05/30 01:19:46;;;;;;;15.23;12.20;;;;;;;17.05;100.00;96199.53;5006291;28;20441;-64
2022/05/30 01:22:34;;;;;;;21.77;12.20;;;;;;;16.98;100.00;96163.28;5006119;28;20046;-62
2022/05/30 01:25:25;;;;;;;18.27;13.90;;;;;;;17.08;100.00;96165.09;5006406;28;20065;-62
2022/05/30 01:28:20;;;;;;;21.33;12.60;;;;;;;17.01;100.00;96159.66;5005054;28;20080;-62
2022/05/30 01:30:47;;;;;;;17.40;12.00;;;;;;;16.91;100.00;96157.88;5004539;28;20053;-62
2022/05/30 01:33:15;;;;;;;17.20;12.68;;;;;;;16.77;100.00;96158.19;5005629;28;20137;-62
2022/05/30 01:35:42;;;;;;;15.00;12.65;;;;;;;16.86;100.00;96163.97;5005753;28;20501;-62
2022/05/30 01:38:08;;;;;;;16.90;12.07;;;;;;;16.75;100.00;96164.22;5005902;28;20080;-63
2022/05/30 01:40:35;;;;;;;15.98;11.70;;;;;;;16.70;100.00;96133.16;5005573;28;20058;-62
2022/05/30 01:43:02;;;;;;;21.65;13.10;;;;;;;16.78;100.00;96145.75;5004402;28;20060;-63
2022/05/30 01:45:29;;;;;;;17.92;11.90;;;;;;;16.88;100.00;96150.34;5005885;28;20058;-63
2022/05/30 01:47:55;;;;;;;16.70;12.52;;;;;;;16.98;100.00;96163.28;5005811;28;20054;-63
2022/05/30 01:50:26;;;;;;;16.20;13.20;;;;;;;17.06;100.00;96173.13;5005342;28;20054;-63
2022/05/30 01:52:53;;;;;;;16.98;12.35;;;;;;;16.94;100.00;96171.00;5005591;28;20068;-62
2022/05/30 01:55:19;;;;;;;22.63;12.80;;;;;;;17.02;100.00;96184.41;5005379;28;20049;-62
2022/05/30 01:57:46;;;;;;;17.25;12.82;;;;;;;17.04;100.00;96172.78;5005607;28;20070;-62
2022/05/30 02:00:20;;;;;;;17.90;13.18;;;;;;;17.04;100.00;96164.38;5005717;28;20053;-62
2022/05/30 02:02:47;;;;;;;22.05;12.75;;;;;;;16.87;100.00;96143.16;5005809;28;20053;-63
2022/05/30 02:05:14;;;;;;;21.95;12.90;;;;;;;17.14;100.00;96177.34;5004066;28;20049;-62
2022/05/30 02:07:42;;;;;;;21.02;12.73;;;;;;;17.05;100.00;96185.53;5004043;28;20061;-63
2022/05/30 02:10:08;;;;;;;20.08;12.50;;;;;;;16.77;100.00;96138.59;5005227;28;20054;-63
2022/05/30 02:12:35;;;;;;;17.77;12.70;;;;;;;16.68;100.00;96130.78;5004865;28;20571;-63
2022/05/30 02:15:02;;;;;;;18.60;11.32;;;;;;;16.91;100.00;96157.88;5005637;28;20100;-62
2022/05/30 02:17:32;;;;;;;16.17;11.52;;;;;;;16.93;100.00;96169.44;5005675;28;20428;-62
2022/05/30 02:19:59;;;;;;;14.80;11.40;;;;;;;16.93;100.00;96175.03;5004499;28;20060;-62
2022/05/30 02:22:30;;;;;;;15.35;12.07;;;;;;;16.86;99.86;96173.16;5005055;28;20525;-62
2022/05/30 02:24:57;;;;;;;17.27;11.15;;;;;;;16.77;100.00;96170.13;5003430;28;20053;-63
2022/05/30 02:27:24;;;;;;;17.38;12.20;;;;;;;16.29;100.00;96114.00;5005227;28;20056;-62
2022/05/30 02:29:52;;;;;;;19.25;13.15;;;;;;;16.53;100.00;96152.66;5005201;28;20050;-63
2022/05/30 02:32:19;;;;;;;15.40;13.20;;;;;;;16.57;100.00;96170.16;5003448;28;20058;-62
2022/05/30 02:37:31;;;;;;;20.63;14.43;;;;;;;16.28;100.00;96180.28;5004923;28;20069;-62
2022/05/30 02:39:58;;;;;;;19.13;14.45;;;;;;;15.94;100.00;96137.84;5004958;28;20444;-63
2022/05/30 02:42:25;;;;;;;18.10;14.57;;;;;;;15.99;100.00;96173.66;5004949;28;20449;-63
2022/05/30 02:44:52;;;;;;;22.17;15.82;;;;;;;16.15;100.00;96190.53;5003031;28;20464;-61
2022/05/30 02:47:18;;;;;;;20.40;15.52;;;;;;;16.17;100.00;96168.53;5004546;28;20064;-63
2022/05/30 02:49:45;;;;;;;24.75;16.60;;;;;;;16.28;100.00;96188.66;5003493;28;20050;-62
2022/05/30 02:52:12;;;;;;;21.52;15.68;;;;;;;15.91;100.00;96130.31;5004211;28;20477;-63
2022/05/30 02:54:39;;;;;;;24.13;14.75;;;;;;;15.85;100.00;96118.06;5004016;28;20057;-63
2022/05/30 02:57:06;;;;;;;19.35;15.05;;;;;;;16.26;100.00;96176.34;5004441;28;20112;-62
2022/05/30 02:59:33;;;;;;;20.38;14.98;;;;;;;16.49;100.00;96207.88;5004628;28;20504;-62
2022/05/30 03:02:00;;;;;;;17.58;14.80;;;;;;;16.46;100.00;96202.34;5004488;28;20061;-62
2022/05/30 03:04:27;;;;;;;18.52;14.07;;;;;;;16.53;100.00;96214.16;5003504;28;20069;-62
2022/05/30 03:06:53;;;;;;;21.17;15.13;;;;;;;15.85;100.00;96084.56;5004358;28;20050;-65
2022/05/30 03:09:20;;;;;;;20.27;13.45;;;;;;;16.53;100.00;96202.97;5003041;28;20134;-62
2022/05/30 03:11:47;;;;;;;19.60;13.32;;;;;;;16.77;100.00;96242.84;5004619;28;20054;-63
2022/05/30 03:14:14;;;;;;;16.17;12.73;;;;;;;16.75;99.05;96238.94;5004378;28;20065;-62
2022/05/30 03:16:40;;;;;;;14.65;11.60;;;;;;;16.69;98.17;96227.47;5004422;28;20050;-62
2022/05/30 03:19:07;;;;;;;17.77;13.45;;;;;;;16.37;98.66;96177.75;5002438;28;20613;-63
2022/05/30 03:21:35;;;;;;;28.98;19.75;;;;;;;16.90;97.59;96237.44;5002453;28;20058;-62
2022/05/30 03:24:02;;;;;;;25.40;18.00;;;;;;;16.75;98.26;96230.53;5002643;28;20058;-62
2022/05/30 03:26:28;;;;;;;19.75;15.35;;;;;;;16.94;98.00;96249.31;5002674;28;20064;-63
2022/05/30 03:28:55;;;;;;;18.67;13.25;;;;;;;16.98;97.45;96247.22;5003757;28;20476;-62
2022/05/30 03:31:21;;;;;;;18.05;12.32;;;;;;;16.98;96.79;96217.25;5003975;28;20077;-63
2022/05/30 03:33:48;;;;;;;17.45;11.98;;;;;;;17.30;95.66;96244.56;4992656;28;20625;-62
2022/05/30 03:36:25;;;;;;;17.35;11.52;;;;;;;17.34;94.99;96240.44;5034085;28;20468;-63
2022/05/30 03:38:52;;;;;;;15.20;11.10;;;;;;;17.12;94.37;96214.16;5023676;28;20124;-62
2022/05/30 03:41:19;;;;;;;11.98;10.23;;;;;;;17.53;92.96;96252.88;5023525;28;20061;-64
2022/05/30 03:43:46;;;;;;;15.00;10.45;;;;;;;17.49;91.99;96240.94;5023490;28;20057;-62
2022/05/30 03:46:13;;;;;;;20.08;9.90;;;;;;;17.09;91.44;96178.63;5022108;28;20061;-62
2022/05/30 03:48:40;;;;;;;16.70;11.43;;;;;;;17.66;90.61;96245.34;5023531;28;20053;-63
2022/05/30 03:51:12;;;;;;;17.27;10.88;;;;;;;17.89;90.01;96248.78;5021633;28;20447;-62
2022/05/30 03:53:40;;;;;;;18.15;10.52;;;;;;;18.09;88.95;96234.69;5023619;28;20057;-62
2022/05/30 03:56:06;;;;;;;17.48;9.93;;;;;;;18.05;88.11;96205.97;5022029;28;20435;-57
2022/05/30 03:58:33;;;;;;;11.88;9.98;;;;;;;18.46;86.65;96242.56;5023302;28;20049;-57
2022/05/30 04:01:00;;;;;;;16.88;10.18;;;;;;;18.45;87.73;96246.59;5023411;28;20064;-58
2022/05/30 04:03:27;;;;;;;15.00;9.93;;;;;;;18.52;87.52;96232.41;5023449;28;20065;-60
2022/05/30 04:05:54;;;;;;;14.73;11.05;;;;;;;18.79;86.39;96249.69;5011940;28;20147;-60
2022/05/30 04:08:20;;;;;;;17.70;9.95;;;;;;;19.01;85.53;96247.06;5006460;28;20058;-57
2022/05/30 04:10:47;;;;;;;12.20;9.50;;;;;;;18.62;84.93;96194.81;5007252;28;20057;-60
2022/05/30 04:13:14;;;;;;;15.65;9.93;;;;;;;18.99;84.18;96241.88;5007526;28;20061;-58
2022/05/30 04:15:40;;;;;;;14.10;9.77;;;;;;;19.02;85.35;96257.03;5007475;28;20045;-58
2022/05/30 04:18:07;;;;;;;13.70;10.30;;;;;;;19.15;84.91;96255.88;5005735;28;20058;-59
2022/05/30 04:20:34;;;;;;;15.90;9.82;;;;;;;18.89;83.98;96198.06;5007482;28;20501;-65
2022/05/30 04:23:02;;;;;;;15.77;10.75;;;;;;;18.93;83.70;96187.53;5006408;28;20056;-59
2022/05/30 04:25:28;;;;;;;16.77;10.20;;;;;;;19.25;84.50;96260.34;5005702;28;20065;-58
2022/05/30 04:27:55;;;;;;;15.07;10.57;;;;;;;19.04;85.34;96246.97;5007541;28;20049;-59
2022/05/30 04:30:22;;;;;;;15.85;11.00;;;;;;;18.31;87.74;96187.25;5007273;28;20069;-61
2022/05/30 04:32:49;;;;;;;15.43;11.65;;;;;;;18.42;87.10;96177.38;5007071;28;20204;-62
2022/05/30 04:35:17;;;;;;;17.95;11.52;;;;;;;18.96;88.01;96276.47;5005959;28;20057;-59
2022/05/30 04:37:46;;;;;;;17.38;12.73;;;;;;;18.58;88.88;96236.22;5004060;28;20042;-60
2022/05/30 04:40:17;;;;;;;17.35;12.65;;;;;;;18.69;90.82;96345.34;5004514;28;20052;-60
2022/05/30 04:42:47;;;;;;;18.83;14.48;;;;;;;18.11;93.31;96221.81;5006615;28;20061;-57
2022/05/30 04:45:15;;;;;;;21.40;13.40;;;;;;;18.20;94.47;96240.03;5005003;28;20574;-58
2022/05/30 04:47:42;;;;;;;20.17;14.63;;;;;;;18.23;94.78;96244.75;5006676;28;20447;-62
2022/05/30 04:50:14;;;;;;;19.75;12.43;;;;;;;18.55;95.05;96290.41;5006840;28;20065;-63
2022/05/30 04:52:42;;;;;;;17.80;12.70;;;;;;;18.51;95.39;96267.25;5007172;28;20053;-62
2022/05/30 04:55:11;;;;;;;18.83;13.63;;;;;;;18.60;95.32;96275.84;5006801;28;20054;-64
2022/05/30 04:57:47;;;;;;;16.30;12.70;;;;;;;18.51;94.01;96239.22;5006152;28;20483;-59
2022/05/30 05:00:17;;;;;;;21.55;12.40;;;;;;;19.21;91.31;96281.34;5006596;28;20081;-60
2022/05/30 05:02:44;;;;;;;18.92;12.73;;;;;;;19.33;89.67;96278.59;5006032;28;20061;-57
2022/05/30 05:05:11;;;;;;;17.08;12.85;;;;;;;19.43;89.51;96288.75;5005246;28;20196;-58
2022/05/30 05:07:45;;;;;;;17.70;12.75;;;;;;;19.52;87.73;96291.69;5005230;28;20050;-57
2022/05/30 05:10:30;;;;;;;;;;;;;;;19.40;88.19;96284.03;5006865;28;20060;-58
2022/05/30 05:12:57;;;;;;;17.58;12.73;;;;;;;19.44;89.68;96289.56;5006357;28;19925;-58
2022/05/30 05:15:23;;;;;;;17.15;13.00;;;;;;;19.64;86.81;96292.16;5006540;28;20060;-61
2022/05/30 05:17:50;;;;;;;14.40;12.27;;;;;;;19.71;84.28;96253.41;5005510;28;20057;-57
2022/05/30 05:20:17;;;;;;;15.65;10.63;;;;;;;20.25;81.76;96295.47;5005793;28;20491;-58
2022/05/30 05:22:43;;;;;;;18.83;11.75;;;;;;;20.65;79.56;96304.94;5004468;28;20104;-58
2022/05/30 05:25:10;;;;;;;14.88;11.57;;;;;;;20.85;78.78;96297.00;5005952;28;20057;-58
2022/05/30 05:27:37;;;;;;;22.75;10.95;;;;;;;20.96;77.11;96294.63;5006285;28;20053;-57
2022/05/30 05:30:05;;;;;;;18.30;11.85;;;;;;;21.15;76.32;96313.25;5005624;28;20427;-57
2022/05/30 05:32:32;;;;;;;15.68;11.65;;;;;;;20.96;75.74;96280.53;5004401;28;20057;-58
2022/05/30 05:34:58;;;;;;;15.05;11.90;;;;;;;21.05;76.30;96311.63;5004480;28;20065;-59
2022/05/30 05:37:25;;;;;;;17.25;12.43;;;;;;;20.96;77.37;96286.19;5010760;28;20807;-59
2022/05/30 05:39:52;;;;;;;20.17;11.55;;;;;;;20.84;76.18;96262.44;5005576;28;20054;-60
2022/05/30 05:42:18;;;;;;;16.77;12.10;;;;;;;21.23;76.14;96306.13;5005768;28;20425;-57
2022/05/30 05:44:45;;;;;;;17.27;11.15;;;;;;;21.21;75.24;96268.38;5005705;28;20057;-58
2022/05/30 05:47:12;;;;;;;18.50;10.80;;;;;;;21.85;73.25;96312.66;5003727;28;20046;-58
2022/05/30 05:49:38;;;;;;;19.58;11.23;;;;;;;22.26;71.48;96315.84;5005937;28;20065;-58
2022/05/30 05:52:05;;;;;;;17.13;10.57;;;;;;;20.78;69.82;96050.34;5001028;28;20057;-58
2022/05/30 05:54:33;;;;;;;14.43;10.10;;;;;;;22.27;68.98;96263.78;5002599;28;20116;-63
2022/05/30 05:57:00;;;;;;;16.13;11.90;;;;;;;22.93;68.37;96318.72;5005607;28;20062;-61
2022/05/30 05:59:26;;;;;;;16.55;10.88;;;;;;;22.60;66.77;96266.88;5003392;28;20513;-60
2022/05/30 06:01:53;;;;;;;17.98;9.73;;;;;;;22.79;66.54;96302.38;5003039;28;20050;-60
2022/05/30 06:04:20;;;;;;;18.90;10.40;;;;;;;23.16;65.21;96325.78;5003814;28;20061;-60
2022/05/30 06:06:47;;;;;;;18.75;11.18;;;;;;;23.02;65.43;96300.97;5005651;28;20413;-60
2022/05/30 06:09:13;;;;;;;17.70;10.35;;;;;;;23.50;64.69;96328.31;5005008;28;20069;-66
2022/05/30 06:11:40;;;;;;;13.40;10.18;;;;;;;23.07;64.15;96277.75;5004966;28;20077;-67
2022/05/30 06:14:07;;;;;;;14.95;9.07;;;;;;;23.46;62.20;96339.00;5001843;28;20057;-60
2022/05/30 06:16:37;;;;;;;11.88;8.80;;;;;;;22.69;66.05;96348.00;5001561;28;20058;-61
2022/05/30 06:19:05;;;;;;;12.95;8.63;;;;;;;23.16;64.67;96342.72;5002953;28;20064;-67
2022/05/30 06:21:33;;;;;;;12.55;9.43;;;;;;;23.03;63.43;96299.72;5001560;28;20057;-60
2022/05/30 06:24:00;;;;;;;13.23;9.27;;;;;;;23.42;63.02;96310.13;5003452;28;20057;-60
2022/05/30 06:26:27;;;;;;;13.48;9.23;;;;;;;23.74;62.81;96332.84;5003331;28;20107;-59
2022/05/30 06:28:55;;;;;;;12.98;9.48;;;;;;;23.57;61.91;96316.69;5003516;28;20057;-68
2022/05/30 06:31:26;;;;;;;14.75;9.25;;;;;;;23.20;63.55;96343.38;5004737;28;20053;-68
2022/05/30 06:33:53;;;;;;;11.40;9.10;;;;;;;22.57;65.91;96329.16;5003459;28;20054;-67
2022/05/30 06:36:23;;;;;;;18.17;10.75;;;;;;;22.65;65.24;96347.38;5034572;28;20436;-60
2022/05/30 06:38:51;;;;;;;15.52;9.27;;;;;;;22.34;65.31;96362.28;5002013;28;20057;-60
2022/05/30 06:41:24;;;;;;;16.85;9.77;;;;;;;22.53;63.63;96356.72;5003974;28;20053;-67
2022/05/30 06:43:54;;;;;;;14.60;9.00;;;;;;;22.77;62.99;96354.91;5003289;28;20096;-64
2022/05/30 06:46:22;;;;;;;12.25;9.38;;;;;;;22.46;64.49;96313.38;5004192;28;20050;-56
2022/05/30 06:48:54;;;;;;;12.80;8.27;;;;;;;23.10;62.41;96351.06;5004566;28;20067;-61
2022/05/30 06:51:24;;;;;;;17.38;8.68;;;;;;;22.59;64.82;96358.47;5002224;28;20060;-64
2022/05/30 06:53:52;;;;;;;10.30;8.52;;;;;;;22.67;63.60;96356.94;5004293;28;20508;-60
2022/05/30 06:56:31;;;;;;;15.30;9.00;;;;;;;23.03;63.44;96359.81;5002794;28;20079;-56
2022/05/30 06:58:58;;;;;;;14.68;8.45;;;;;;;23.51;62.71;96358.16;5003329;28;20049;-56
2022/05/30 07:01:27;;;;;;;9.68;8.43;;;;;;;23.57;61.88;96356.25;5003124;28;20106;-57
2022/05/30 07:03:55;;;;;;;17.35;9.23;;;;;;;23.39;62.81;96361.94;5003405;28;20107;-57
2022/05/30 07:06:25;;;;;;;11.77;8.63;;;;;;;23.69;60.87;96363.81;5003612;28;20069;-58
2022/05/30 07:08:52;;;;;;;14.20;9.30;;;;;;;23.89;61.47;96373.38;5003527;28;20046;-57
2022/05/30 07:11:21;;;;;;;9.82;8.75;;;;;;;24.09;60.92;96361.56;5002521;28;20068;-62
2022/05/30 07:13:49;;;;;;;14.05;9.70;;;;;;;23.80;61.61;96362.09;5002019;28;20436;-63
2022/05/30 07:16:17;;;;;;;15.30;9.05;;;;;;;24.08;61.05;96367.69;5004144;28;20077;-59
2022/05/30 07:18:44;;;;;;;10.27;8.50;;;;;;;24.14;60.94;96366.56;5003682;28;20177;-62
2022/05/30 07:21:13;;;;;;;14.55;9.55;;;;;;;24.00;60.17;96350.25;4984684;28;20114;-57
2022/05/30 07:23:41;;;;;;;26.13;11.70;;;;;;;22.53;59.69;96108.31;4984863;28;20498;-60
2022/05/30 07:26:12;;;;;;;10.93;8.98;;;;;;;23.06;62.58;96321.38;4993754;28;20543;-62
2022/05/30 07:28:39;;;;;;;12.70;8.48;;;;;;;23.24;61.45;96380.72;5003132;28;20114;-62
2022/05/30 07:31:12;;;;;;;15.73;8.50;;;;;;;23.84;59.60;96353.41;5002824;28;20046;-59
2022/05/30 07:33:42;;;;;;;16.17;8.40;;;;;;;24.17;59.26;96376.19;5003210;28;20064;-57
2022/05/30 07:36:11;;;;;;;14.02;9.15;;;;;;;24.51;58.80;96373.69;5002787;28;20053;-58
2022/05/30 07:38:38;;;;;;;13.32;9.02;;;;;;;24.95;54.62;96374.75;5016584;28;20525;-57
2022/05/30 07:41:05;;;;;;;13.27;8.95;;;;;;;25.14;54.90;96370.56;5022981;28;20053;-61
2022/05/30 07:43:32;;;;;;;11.52;8.13;;;;;;;24.28;52.85;96173.41;5002959;28;20061;-58
2022/05/30 07:46:08;;;;;;;8.60;6.88;;;;;;;24.80;51.42;96325.72;4998816;28;20053;-61
2022/05/30 07:48:36;;;;;;;5.90;5.40;;;;;;;24.25;53.53;96366.84;5002164;28;20410;-59
2022/05/30 07:51:04;;;;;;;6.10;5.55;;;;;;;24.37;54.62;96373.59;5003242;28;20049;-64
2022/05/30 07:53:32;;;;;;;7.10;5.53;;;;;;;24.94;53.72;96384.50;5000127;28;20588;-60
2022/05/30 07:55:59;;;;;;;6.82;6.22;;;;;;;25.43;51.38;96391.81;5001279;28;20059;-67
2022/05/30 07:58:26;;;;;;;6.63;5.93;;;;;;;25.18;51.62;96382.47;5002737;28;20069;-65
2022/05/30 08:00:53;;;;;;;7.75;5.60;;;;;;;25.20;51.15;96384.84;5002499;28;20054;-63
2022/05/30 08:03:21;;;;;;;7.57;5.55;;;;;;;25.21;50.38;96363.75;5002504;28;20061;-66
2022/05/30 08:05:48;;;;;;;17.13;9.07;;;;;;;25.68;50.63;96374.25;5002968;28;20564;-60
2022/05/30 08:08:16;;;;;;;6.40;5.80;;;;;;;25.62;49.84;96390.41;5002703;28;20054;-66
2022/05/30 08:10:42;;;;;;;7.28;5.45;;;;;;;25.72;49.08;96386.22;5002844;28;20050;-60
2022/05/30 08:13:09;;;;;;;6.18;5.55;;;;;;;25.50;49.20;96374.44;5002403;28;20050;-65
2022/05/30 08:15:36;;;;;;;7.80;5.32;;;;;;;25.56;49.41;96386.66;5002407;28;20054;-58
2022/05/30 08:18:02;;;;;;;10.30;6.22;;;;;;;24.80;50.00;96322.13;5003309;28;20108;-66
2022/05/30 08:20:31;;;;;;;10.07;6.60;;;;;;;24.88;50.09;96346.78;5002375;28;20065;-57
2022/05/30 08:22:58;;;;;;;9.23;5.55;;;;;;;24.53;51.09;96362.66;5009502;28;20061;-63
2022/05/30 08:25:25;;;;;;;12.45;6.35;;;;;;;24.75;50.92;96368.91;5019947;28;20267;-60
2022/05/30 08:27:52;;;;;;;6.97;5.05;;;;;;;25.40;49.60;96409.78;5002867;28;20046;-61
2022/05/30 08:30:20;;;;;;;6.47;4.90;;;;;;;24.82;50.75;96360.03;5002345;28;20054;-59
2022/05/30 08:32:47;;;;;;;6.35;4.80;;;;;;;25.34;49.35;96411.72;5002343;28;20145;-65
2022/05/30 08:35:18;;;;;;;6.55;5.05;;;;;;;24.71;50.66;96396.59;5002072;28;20072;-65
2022/05/30 08:37:46;;;;;;;5.93;5.38;;;;;;;25.40;48.20;96410.59;5003004;28;20080;-59
2022/05/30 08:43:22;;;;;;;5.88;5.25;;;;;;;26.10;47.31;96431.59;5002990;28;20085;-59
2022/05/30 08:45:55;;;;;;;8.18;6.63;;;;;;;26.57;47.48;96412.31;5003355;28;20064;-67
2022/05/30 08:49:01;;;;;;;12.43;6.40;;;;;;;27.26;46.23;96416.53;5002772;28;20108;-60
2022/05/30 08:51:49;;;;;;;7.25;5.93;;;;;;;27.37;44.04;96416.72;5015492;28;20049;-60
2022/05/30 08:54:33;;;;;;;6.18;5.57;;;;;;;27.14;44.96;96424.09;5022907;28;20058;-60
2022/05/30 08:57:04;;;;;;;6.95;6.20;;;;;;;26.26;46.87;96425.47;5025993;28;20053;-62
2022/05/30 08:59:45;;;;;;;6.03;5.53;;;;;;;25.79;47.31;96431.22;5025858;28;20520;-69
2022/05/30 09:02:21;;;;;;;6.57;6.10;;;;;;;25.68;47.03;96358.03;5023246;28;20061;-60
2022/05/30 09:04:55;;;;;;;8.68;5.90;;;;;;;26.30;46.97;96386.31;5025976;28;20466;-61
2022/05/30 09:07:34;;;;;;;;;;;;;;;27.13;45.47;96431.09;5023496;28;20049;-61
2022/05/30 09:10:13;;;;;;;7.03;5.88;;;;;;;26.05;46.84;96426.63;5019269;28;20366;-63
2022/05/30 09:13:05;;;;;;;7.80;6.60;;;;;;;26.17;47.03;96428.41;5026011;28;20053;-63
2022/05/30 09:15:52;;;;;;;7.15;6.25;;;;;;;26.89;46.31;96438.97;5025668;28;20068;-68
2022/05/30 09:18:28;;;;;;;8.68;6.85;;;;;;;27.60;45.07;96442.13;5023245;28;20049;-59
2022/05/30 09:20:55;;;;;;;7.18;6.45;;;;;;;26.51;47.39;96445.56;5024562;28;20466;-64
2022/05/30 09:23:24;;;;;;;6.75;6.15;;;;;;;26.82;46.12;96450.75;5024949;28;20061;-69
2022/05/30 09:26:00;;;;;;;7.35;6.65;;;;;;;27.32;45.36;96443.81;5024806;28;20050;-71
2022/05/30 09:28:32;;;;;;;6.05;5.55;;;;;;;26.98;46.35;96453.09;5026033;28;20563;-65
2022/05/30 09:31:05;;;;;;;7.32;5.90;;;;;;;27.51;45.35;96447.97;5025771;28;20053;-70
2022/05/30 09:33:37;;;;;;;6.95;6.45;;;;;;;26.50;46.97;96451.72;5023497;28;20520;-65
2022/05/30 09:36:18;;;;;;;7.22;6.00;;;;;;;26.66;46.83;96454.09;5025379;28;20049;-71
2022/05/30 09:38:48;;;;;;;6.55;5.97;;;;;;;26.67;46.97;96449.97;5024559;28;20439;-64
2022/05/30 09:41:22;;;;;;;6.78;6.13;;;;;;;26.59;46.84;96448.78;5024214;28;20059;-68
2022/05/30 09:43:52;;;;;;;6.10;5.57;;;;;;;27.35;45.09;96454.19;5024831;28;20053;-64
2022/05/30 09:46:34;;;;;;;8.75;6.65;;;;;;;27.24;45.46;96454.00;5025535;28;20138;-66
2022/05/30 09:49:05;;;;;;;6.38;5.75;;;;;;;26.18;46.87;96458.34;5026650;28;20142;-67
2022/05/30 09:51:44;;;;;;;7.15;6.55;;;;;;;25.94;47.62;96443.41;5024563;28;20484;-64
2022/05/30 09:54:28;;;;;;;7.47;6.72;;;;;;;26.29;46.54;96407.44;5024206;28;20072;-64
2022/05/30 09:57:05;;;;;;;9.52;6.68;;;;;;;26.52;47.72;96457.72;5013487;28;20124;-69
2022/05/30 09:59:40;;;;;;;13.57;7.85;;;;;;;27.31;46.25;96461.38;5009249;28;20081;-65
2022/05/30 10:02:27;;;;;;;11.77;8.50;;;;;;;27.01;45.98;96428.56;5022729;28;20335;-66
2022/05/30 10:05:14;;;;;;;10.00;7.22;;;;;;;26.29;46.97;96430.94;5019659;28;20049;-66
2022/05/30 10:08:07;;;;;;;7.13;6.47;;;;;;;27.23;46.44;96466.66;5017018;28;20814;-66
2022/05/30 10:10:40;;;;;;;7.28;6.68;;;;;;;27.52;45.17;96469.44;5015883;28;20069;-64
2022/05/30 10:13:12;;;;;;;6.97;6.37;;;;;;;27.91;44.01;96475.69;5021989;28;20049;-68
2022/05/30 10:15:42;;;;;;;6.63;6.13;;;;;;;27.85;43.85;96464.19;5024048;28;20507;-67
2022/05/30 10:18:17;;;;;;;7.10;6.45;;;;;;;27.50;45.48;96465.53;5022636;28;20091;-62
2022/05/30 10:21:17;;;;;;;8.43;6.28;;;;;;;27.04;44.87;96473.06;5021878;28;20057;-65
2022/05/30 10:29:46;;;;;;;6.75;6.10;;;;;;;28.09;43.61;96476.16;5024235;28;20057;-64
2022/05/30 10:32:21;;;;;;;9.68;6.50;;;;;;;27.49;46.19;96470.44;5012778;28;20062;-64
2022/05/30 10:35:05;;;;;;;5.78;5.30;;;;;;;26.46;46.96;96474.63;5009092;28;20052;-66
2022/05/30 10:37:32;;;;;;;7.65;6.10;;;;;;;27.26;45.96;96484.78;5022372;28;20050;-64
2022/05/30 10:40:14;;;;;;;6.55;6.15;;;;;;;27.96;44.28;96470.03;5023437;28;20056;-65
2022/05/30 10:43:11;;;;;;;6.97;6.30;;;;;;;28.37;43.52;96481.41;5023829;28;20175;-66
2022/05/30 10:45:52;;;;;;;7.32;6.38;;;;;;;28.61;42.80;96467.69;5020859;28;20077;-64
2022/05/30 10:48:33;;;;;;;6.45;5.82;;;;;;;28.32;43.32;96456.47;5024158;28;20052;-65
2022/05/30 10:51:23;;;;;;;6.35;5.85;;;;;;;28.18;44.31;96475.25;5021938;28;20041;-68
2022/05/30 10:54:12;;;;;;;8.13;7.32;;;;;;;27.47;45.04;96473.00;5023864;28;20045;-64
2022/05/30 10:56:44;;;;;;;7.47;6.60;;;;;;;26.65;47.13;96469.59;5024078;28;20049;-66
2022/05/30 10:59:34;;;;;;;8.23;6.60;;;;;;;27.76;45.10;96472.88;5023556;28;20053;-63
2022/05/30 11:02:10;;;;;;;7.30;6.35;;;;;;;28.20;43.74;96420.59;5017929;28;20592;-69
2022/05/30 11:04:53;;;;;;;5.95;5.60;;;;;;;28.83;42.76;96473.59;5024256;28;20244;-67
2022/05/30 11:08:05;;;;;;;7.60;6.95;;;;;;;28.94;41.59;96451.66;5009062;28;20060;-64
2022/05/30 11:10:56;;;;;;;7.93;6.65;;;;;;;28.61;42.21;96467.69;4942043;29;20079;-66
2022/05/30 11:13:40;;;;;;;7.18;6.47;;;;;;;28.87;42.29;96474.13;5013818;28;20089;-66
2022/05/30 11:16:45;;;;;;;7.93;7.22;;;;;;;28.14;43.17;96469.75;5021637;28;20058;-63
2022/05/30 11:19:22;;;;;;;7.22;6.40;;;;;;;27.66;43.52;96468.59;5021511;28;20637;-63
2022/05/30 11:22:27;;;;;;;7.15;6.55;;;;;;;28.04;44.41;96471.19;5022095;28;20045;-65
2022/05/30 11:25:01;;;;;;;5.82;5.45;;;;;;;26.97;44.90;96473.50;5022967;28;20563;-62
2022/05/30 11:27:36;;;;;;;6.93;6.43;;;;;;;27.20;46.08;96481.09;5022687;28;20049;-63
2022/05/30 11:30:30;;;;;;;8.07;7.38;;;;;;;27.96;43.93;96467.19;5022149;28;20578;-61
2022/05/30 11:33:34;;;;;;;15.55;9.00;;;;;;;28.96;42.58;96465.41;5019749;28;20057;-63
2022/05/30 11:36:03;;;;;;;8.77;7.93;;;;;;;29.41;41.39;96461.63;5022246;28;20046;-66
2022/05/30 11:38:46;;;;;;;7.47;6.88;;;;;;;28.90;42.81;96464.56;5023332;28;20053;-61
2022/05/30 11:41:28;;;;;;;7.22;6.63;;;;;;;28.59;42.46;96470.25;5013157;28;20061;-59
2022/05/30 11:44:07;;;;;;;8.02;7.03;;;;;;;27.66;45.17;96423.03;5003640;28;20508;-65
2022/05/30 11:46:41;;;;;;;7.32;6.63;;;;;;;27.92;44.03;96463.78;5004360;28;20149;-66
2022/05/30 11:49:32;;;;;;;8.80;6.35;;;;;;;27.73;44.48;96476.72;5024549;28;20331;-60
2022/05/30 11:52:12;;;;;;;6.72;6.32;;;;;;;27.40;43.83;96484.78;5021359;28;20107;-61
2022/05/30 11:55:03;;;;;;;6.70;6.10;;;;;;;27.50;44.76;96472.00;5022687;28;20053;-65
2022/05/30 11:58:07;;;;;;;7.63;7.03;;;;;;;28.15;43.64;96476.25;5022167;28;20543;-66